Time;durP1;ratioP1;P1;durP2;ratioP2;P2;SDS_P1;SDS_P2;PMS_P1;PMS_P2;Temp;Humidity;BMP_temperature;BMP_pressure;BME280_temperature;BME280_humidity;BME280_pressure;Samples;Min_cycle;Max_cycle;Signal;HPM_P1;HPM_P2
2023/10/09 00:01:18;;;;;;;5.82;2.47;;;13.40;99.90;;;;;;5077022;28;20444;-72
2023/10/09 00:03:45;;;;;;;5.53;2.65;;;13.40;99.90;;;;;;5076081;28;20044;-72
2023/10/09 00:06:14;;;;;;;6.40;2.92;;;13.30;99.90;;;;;;5077368;28;20429;-72
2023/10/09 00:08:44;;;;;;;5.68;2.30;;;13.30;99.90;;;;;;5075849;28;20132;-72
2023/10/09 00:11:15;;;;;;;5.45;2.63;;;13.40;99.90;;;;;;5076597;28;20558;-72
2023/10/09 00:13:48;;;;;;;5.90;2.78;;;13.30;99.90;;;;;;5076663;28;20056;-73
2023/10/09 00:16:36;;;;;;;5.72;2.70;;;13.30;99.90;;;;;;5077470;28;20048;-71
2023/10/09 00:19:30;;;;;;;7.93;2.85;;;13.30;99.90;;;;;;5077406;28;20048;-72
2023/10/09 00:21:58;;;;;;;8.27;3.63;;;13.30;99.90;;;;;;5077293;28;20056;-72
2023/10/09 00:24:24;;;;;;;6.63;3.50;;;13.30;99.90;;;;;;5076587;28;20048;-71
2023/10/09 00:27:01;;;;;;;6.47;3.53;;;13.30;99.90;;;;;;5076520;28;20044;-72
2023/10/09 00:29:28;;;;;;;7.45;3.75;;;13.30;99.90;;;;;;5077412;28;20044;-72
2023/10/09 00:32:05;;;;;;;7.20;3.92;;;13.30;99.90;;;;;;5076519;28;20083;-72
2023/10/09 00:34:39;;;;;;;7.30;3.60;;;13.30;99.90;;;;;;5076444;28;20055;-72
2023/10/09 00:37:10;;;;;;;10.07;4.50;;;13.30;99.90;;;;;;5076389;28;20048;-72
2023/10/09 00:42:03;;;;;;;7.55;3.75;;;13.40;99.90;;;;;;5076762;28;20090;-71
2023/10/09 00:44:39;;;;;;;10.38;4.32;;;13.30;99.90;;;;;;5076266;28;20052;-71
2023/10/09 00:47:26;;;;;;;9.73;4.40;;;13.30;99.90;;;;;;5076819;28;20091;-71
2023/10/09 00:50:10;;;;;;;8.60;3.88;;;13.30;99.90;;;;;;5075433;28;20466;-71
2023/10/09 00:53:30;;;;;;;8.65;4.32;;;13.30;99.90;;;;;;5076366;28;20102;-71
2023/10/09 00:55:36;;;;;;;7.75;4.25;;;13.30;99.90;;;;;;5073201;28;20048;-71
2023/10/09 00:58:05;;;;;;;10.02;4.53;;;13.20;99.90;;;;;;5075694;28;20052;-71
2023/10/09 01:03:10;;;;;;;8.65;4.82;;;13.20;99.90;;;;;;5075856;28;20474;-72
2023/10/09 01:05:37;;;;;;;9.68;5.05;;;13.20;99.90;;;;;;5076545;28;20060;-72
2023/10/09 01:08:16;;;;;;;10.43;5.22;;;13.20;99.90;;;;;;5075851;28;20044;-72
2023/10/09 01:10:56;;;;;;;11.18;5.97;;;13.20;99.90;;;;;;5075843;28;20097;-71
2023/10/09 01:13:38;;;;;;;11.23;5.78;;;13.20;99.90;;;;;;5076364;28;20401;-71
2023/10/09 01:16:06;;;;;;;10.05;5.43;;;13.20;99.90;;;;;;5075771;28;20059;-72
2023/10/09 01:18:37;;;;;;;10.43;5.95;;;13.20;99.90;;;;;;5076114;28;20105;-70
2023/10/09 01:21:03;;;;;;;11.93;5.70;;;13.20;99.90;;;;;;5076472;28;20388;-71
2023/10/09 01:23:29;;;;;;;11.93;5.82;;;13.20;99.90;;;;;;5074832;28;20120;-72
2023/10/09 01:25:55;;;;;;;9.73;5.55;;;13.10;99.90;;;;;;5076079;28;20123;-72
2023/10/09 01:28:21;;;;;;;12.75;5.65;;;13.10;99.90;;;;;;5075495;28;20174;-70
2023/10/09 01:30:47;;;;;;;10.80;5.93;;;13.10;99.90;;;;;;5075341;28;20106;-72
2023/10/09 01:33:26;;;;;;;12.57;7.05;;;13.10;99.90;;;;;;5075796;28;20048;-71
2023/10/09 01:35:58;;;;;;;11.25;6.00;;;13.10;99.90;;;;;;5076216;28;20036;-71
2023/10/09 01:38:43;;;;;;;10.40;6.55;;;13.10;99.90;;;;;;5075576;28;20481;-70
2023/10/09 01:41:19;;;;;;;11.57;6.97;;;13.10;99.90;;;;;;5075879;28;20058;-71
2023/10/09 01:43:45;;;;;;;11.27;6.75;;;13.10;99.90;;;;;;5075782;28;20393;-71
2023/10/09 01:46:19;;;;;;;11.40;6.30;;;13.00;99.90;;;;;;5075137;28;20117;-71
2023/10/09 01:48:46;;;;;;;12.38;7.10;;;13.00;99.90;;;;;;5075115;28;20055;-71
2023/10/09 01:51:18;;;;;;;11.70;7.03;;;13.00;99.90;;;;;;5074855;28;20094;-71
2023/10/09 01:53:56;;;;;;;13.18;7.47;;;13.00;99.90;;;;;;5074744;28;20130;-71
2023/10/09 01:56:22;;;;;;;11.95;6.90;;;13.00;99.90;;;;;;5074913;28;20106;-71
2023/10/09 01:58:50;;;;;;;12.43;6.30;;;13.00;99.90;;;;;;5075461;28;20041;-70
2023/10/09 02:01:16;;;;;;;13.48;7.18;;;13.00;99.90;;;;;;5073776;28;20052;-71
2023/10/09 02:03:43;;;;;;;13.05;7.25;;;12.90;99.90;;;;;;5074935;28;20370;-71
2023/10/09 02:06:26;;;;;;;19.58;8.00;;;12.90;99.90;;;;;;5075226;28;20375;-71
2023/10/09 02:08:56;;;;;;;12.85;7.30;;;12.90;99.90;;;;;;5073734;28;20054;-71
2023/10/09 02:11:36;;;;;;;14.38;8.00;;;13.00;99.90;;;;;;5075099;28;20050;-71
2023/10/09 02:14:18;;;;;;;14.00;7.22;;;13.00;99.90;;;;;;5074562;28;20132;-71
2023/10/09 02:17:01;;;;;;;12.73;7.22;;;13.00;99.90;;;;;;5074525;28;20048;-71
2023/10/09 02:19:34;;;;;;;13.10;7.75;;;13.00;99.90;;;;;;5075355;28;20436;-70
2023/10/09 02:22:11;;;;;;;15.02;8.40;;;13.00;99.90;;;;;;5074853;28;20055;-70
2023/10/09 02:24:50;;;;;;;14.13;7.93;;;13.00;99.90;;;;;;5074992;28;20117;-71
2023/10/09 02:30:08;;;;;;;15.32;7.70;;;13.00;99.90;;;;;;5074826;28;20493;-71
2023/10/09 02:32:35;;;;;;;15.23;8.07;;;13.00;99.90;;;;;;5074791;28;20056;-71
2023/10/09 02:35:10;;;;;;;14.98;8.45;;;13.00;99.90;;;;;;5074194;28;20098;-71
2023/10/09 02:37:37;;;;;;;16.75;9.57;;;13.00;99.90;;;;;;5073932;28;20489;-71
2023/10/09 02:40:08;;;;;;;17.75;8.55;;;13.00;99.90;;;;;;5073778;28;20557;-71
2023/10/09 02:42:34;;;;;;;14.95;8.93;;;13.00;99.90;;;;;;5074668;28;20036;-71
2023/10/09 02:45:00;;;;;;;14.38;8.43;;;13.00;99.90;;;;;;5073960;28;20053;-70
2023/10/09 02:47:38;;;;;;;15.80;9.07;;;13.00;99.90;;;;;;5073002;28;20040;-71
2023/10/09 02:50:19;;;;;;;17.60;8.80;;;13.00;99.90;;;;;;5074074;28;20052;-71
2023/10/09 02:52:47;;;;;;;16.75;8.80;;;13.10;99.90;;;;;;5073688;28;20044;-71
2023/10/09 02:55:23;;;;;;;18.50;8.43;;;13.10;99.90;;;;;;5074209;28;20500;-71
2023/10/09 02:57:52;;;;;;;16.63;8.95;;;13.10;99.90;;;;;;5073883;28;20048;-71
2023/10/09 03:00:29;;;;;;;18.80;9.80;;;13.10;99.90;;;;;;5074392;28;20510;-71
2023/10/09 03:02:58;;;;;;;17.15;9.38;;;13.10;99.90;;;;;;5074597;28;20044;-70
2023/10/09 03:05:27;;;;;;;16.45;9.18;;;13.10;99.90;;;;;;5074324;28;20044;-70
2023/10/09 03:07:53;;;;;;;17.45;9.38;;;13.10;99.90;;;;;;5074182;28;20044;-71
2023/10/09 03:10:20;;;;;;;16.85;9.63;;;13.10;99.90;;;;;;5073749;28;20056;-71
2023/10/09 03:12:46;;;;;;;19.00;10.68;;;13.10;99.90;;;;;;5074160;28;20040;-71
2023/10/09 03:15:12;;;;;;;19.73;10.25;;;13.10;99.90;;;;;;5073659;28;20062;-71
2023/10/09 03:17:38;;;;;;;21.27;10.45;;;13.10;99.90;;;;;;5073553;28;20074;-70
2023/10/09 03:20:12;;;;;;;18.13;10.02;;;13.10;99.90;;;;;;5073825;28;20066;-71
2023/10/09 03:22:42;;;;;;;23.05;11.15;;;13.10;99.90;;;;;;5073491;28;20044;-70
2023/10/09 03:25:13;;;;;;;21.63;13.57;;;13.20;99.90;;;;;;5073462;28;20051;-71
2023/10/09 03:27:46;;;;;;;20.75;10.75;;;13.20;99.90;;;;;;5073596;28;20045;-72
2023/10/09 03:30:22;;;;;;;19.83;11.30;;;13.20;99.90;;;;;;5074094;28;20091;-70
2023/10/09 03:32:50;;;;;;;22.07;11.77;;;13.20;99.90;;;;;;5074158;28;20044;-71
2023/10/09 03:35:23;;;;;;;26.90;13.07;;;13.30;99.90;;;;;;5073373;28;20286;-71
2023/10/09 03:37:51;;;;;;;19.63;12.13;;;13.30;99.90;;;;;;5073412;28;20044;-71
2023/10/09 03:40:17;;;;;;;22.50;12.30;;;13.30;99.90;;;;;;5073912;28;20079;-72
2023/10/09 03:42:44;;;;;;;22.65;11.85;;;13.40;99.90;;;;;;5073852;28;20102;-72
2023/10/09 03:45:24;;;;;;;27.00;13.07;;;13.40;99.90;;;;;;5073643;28;20122;-71
2023/10/09 03:48:14;;;;;;;22.67;12.60;;;13.40;99.90;;;;;;5073588;28;20452;-72
2023/10/09 03:50:43;;;;;;;23.80;12.68;;;13.50;99.90;;;;;;5072261;28;20506;-72
2023/10/09 03:53:11;;;;;;;24.15;14.52;;;13.50;99.90;;;;;;5073080;28;20072;-72
2023/10/09 03:55:40;;;;;;;25.55;12.68;;;13.50;99.90;;;;;;5073270;28;20121;-71
2023/10/09 03:58:13;;;;;;;28.80;12.85;;;13.60;99.90;;;;;;5072221;28;20132;-71
2023/10/09 04:00:45;;;;;;;20.38;12.13;;;13.60;99.90;;;;;;5073804;28;20049;-72
2023/10/09 04:03:11;;;;;;;22.98;11.98;;;13.60;99.90;;;;;;5072115;28;20465;-71
2023/10/09 04:05:41;;;;;;;23.92;12.27;;;13.70;99.90;;;;;;5073124;28;20048;-72
2023/10/09 04:08:28;;;;;;;25.40;13.20;;;13.70;99.90;;;;;;5073785;28;20066;-72
2023/10/09 04:10:53;;;;;;;22.67;12.70;;;13.70;99.90;;;;;;5073329;28;20098;-72
2023/10/09 04:13:22;;;;;;;25.15;13.43;;;13.70;99.90;;;;;;5073058;28;20451;-71
2023/10/09 04:15:53;;;;;;;25.70;13.63;;;13.80;99.90;;;;;;5073024;28;20052;-71
2023/10/09 04:18:20;;;;;;;27.00;14.52;;;13.80;99.90;;;;;;5072010;28;20052;-72
2023/10/09 04:23:59;;;;;;;25.48;14.00;;;13.90;99.90;;;;;;5072887;28;20071;-71
2023/10/09 04:26:24;;;;;;;27.80;13.10;;;13.90;99.90;;;;;;5072418;28;20084;-72
2023/10/09 04:28:52;;;;;;;23.48;12.60;;;14.00;99.90;;;;;;5073756;28;20056;-72
2023/10/09 04:31:31;;;;;;;24.38;13.07;;;14.00;99.90;;;;;;5072937;28;20209;-71
2023/10/09 04:34:21;;;;;;;25.35;12.88;;;14.00;99.90;;;;;;5076694;28;20384;-71
2023/10/09 04:36:49;;;;;;;28.27;13.07;;;14.00;99.90;;;;;;5076351;28;20052;-72
2023/10/09 04:39:16;;;;;;;25.45;14.32;;;14.00;99.90;;;;;;5076348;28;20053;-72
2023/10/09 04:44:24;;;;;;;29.63;13.68;;;14.10;99.90;;;;;;5076231;28;20521;-71
2023/10/09 04:52:19;;;;;;;28.13;14.82;;;14.10;99.90;;;;;;5076928;28;20056;-71
2023/10/09 04:57:37;;;;;;;28.67;14.10;;;14.20;99.90;;;;;;5076131;28;20090;-72
2023/10/09 05:00:21;;;;;;;27.00;14.48;;;14.20;99.90;;;;;;5076566;28;20048;-72
2023/10/09 05:02:54;;;;;;;26.88;14.73;;;14.30;99.90;;;;;;5076500;28;20044;-71
2023/10/09 05:08:21;;;;;;;30.02;14.32;;;14.30;99.90;;;;;;5076442;28;20436;-72
2023/10/09 05:16:15;;;;;;;27.27;14.98;;;14.40;99.90;;;;;;5076030;28;20070;-71
2023/10/09 05:18:42;;;;;;;27.50;15.90;;;14.40;99.90;;;;;;5075659;28;20060;-71
2023/10/09 05:23:48;;;;;;;27.45;14.60;;;14.40;99.90;;;;;;5075526;28;20095;-72
2023/10/09 05:27:18;;;;;;;30.88;17.35;;;14.50;99.90;;;;;;5075601;28;20048;-72
2023/10/09 05:32:03;;;;;;;32.50;16.63;;;14.60;99.90;;;;;;5075928;28;20142;-72
2023/10/09 05:37:24;;;;;;;30.60;14.13;;;14.60;99.90;;;;;;5075761;28;20055;-71
2023/10/09 05:47:53;;;;;;;28.05;15.05;;;14.70;99.90;;;;;;5075213;28;20044;-72
2023/10/09 06:03:48;;;;;;;27.08;14.05;;;14.80;99.90;;;;;;5075323;28;20131;-72
2023/10/09 06:11:49;;;;;;;27.30;13.73;;;15.00;99.90;;;;;;5074614;28;20444;-66
2023/10/09 06:14:25;;;;;;;26.27;14.25;;;15.00;99.90;;;;;;5074911;28;20048;-65
2023/10/09 06:17:15;;;;;;;28.52;13.75;;;15.00;99.90;;;;;;5074317;28;20059;-65
2023/10/09 06:19:44;;;;;;;28.88;14.07;;;15.00;99.90;;;;;;5074409;28;20048;-66
2023/10/09 06:24:54;;;;;;;29.05;15.15;;;15.10;99.90;;;;;;5074437;28;20052;-65
2023/10/09 06:27:43;;;;;;;24.65;13.38;;;15.10;99.90;;;;;;5073979;28;20051;-65
2023/10/09 06:32:46;;;;;;;26.25;12.75;;;15.10;99.90;;;;;;5074117;28;20110;-65
2023/10/09 06:35:30;;;;;;;25.08;13.00;;;15.10;99.90;;;;;;5074068;28;20485;-65
2023/10/09 06:43:26;;;;;;;26.58;12.40;;;15.20;99.90;;;;;;5073977;28;20245;-65
2023/10/09 06:51:55;;;;;;;20.85;11.57;;;15.30;99.90;;;;;;5072745;28;20135;-65
2023/10/09 06:54:04;;;;;;;19.58;10.90;;;15.30;99.90;;;;;;5066400;28;20056;-65
2023/10/09 06:58:57;;;;;;;15.88;9.50;;;15.40;99.90;;;;;;5073803;28;20059;-65
2023/10/09 07:01:42;;;;;;;18.42;10.80;;;15.40;99.90;;;;;;5073778;28;20060;-65
2023/10/09 07:07:12;;;;;;;16.77;9.80;;;15.50;99.90;;;;;;5050337;28;20056;-65
2023/10/09 07:12:27;;;;;;;14.88;8.95;;;15.60;99.90;;;;;;5073588;28;20047;-65
2023/10/09 07:20:58;;;;;;;15.80;8.40;;;15.70;99.90;;;;;;5073599;28;20052;-64
2023/10/09 07:22:56;;;;;;;14.95;8.15;;;15.70;99.90;;;;;;5069017;28;20044;-65
2023/10/09 07:25:54;;;;;;;15.02;7.78;;;15.70;99.90;;;;;;5073584;28;20055;-64
2023/10/09 07:28:29;;;;;;;12.95;6.55;;;15.80;99.90;;;;;;5073195;28;20526;-65
2023/10/09 07:30:58;;;;;;;13.13;7.20;;;15.80;99.90;;;;;;5074201;28;20041;-65
2023/10/09 07:33:33;;;;;;;11.80;6.57;;;15.80;99.90;;;;;;5073895;28;20091;-65
2023/10/09 07:36:06;;;;;;;10.05;6.53;;;15.90;99.90;;;;;;5073986;28;20051;-65
2023/10/09 07:38:37;;;;;;;13.25;7.03;;;15.90;99.90;;;;;;5074190;28;20106;-65
2023/10/09 07:43:45;;;;;;;15.93;6.57;;;15.90;99.90;;;;;;5073144;28;20048;-64
2023/10/09 07:46:30;;;;;;;12.00;6.65;;;15.90;99.90;;;;;;5073915;28;20088;-64
2023/10/09 07:49:08;;;;;;;11.82;6.18;;;15.90;99.90;;;;;;5073774;28;20174;-64
2023/10/09 07:51:36;;;;;;;13.48;7.18;;;15.90;99.90;;;;;;5073349;28;20466;-64
2023/10/09 07:54:08;;;;;;;13.27;6.15;;;15.90;99.90;;;;;;5073510;28;20055;-64
2023/10/09 07:57:08;;;;;;;14.13;5.90;;;15.90;99.90;;;;;;5073179;28;20057;-64
2023/10/09 07:59:23;;;;;;;12.75;6.72;;;15.90;99.90;;;;;;5071805;28;20059;-64
2023/10/09 08:02:02;;;;;;;14.73;6.82;;;15.90;99.90;;;;;;5072824;28;20049;-64
2023/10/09 08:04:37;;;;;;;13.50;6.60;;;16.00;99.90;;;;;;5073504;28;20439;-65
2023/10/09 08:07:19;;;;;;;12.38;6.05;;;16.00;99.90;;;;;;5073806;28;20044;-65
2023/10/09 08:11:35;;;;;;;9.77;5.53;;;16.00;99.90;;;;;;5077539;28;20132;-65
2023/10/09 08:17:58;;;;;;;10.32;5.80;;;16.10;99.90;;;;;;5077631;28;20083;-65
2023/10/09 08:20:27;;;;;;;11.27;6.03;;;16.10;99.90;;;;;;5076958;28;20094;-65
2023/10/09 08:22:56;;;;;;;12.63;6.10;;;16.10;99.90;;;;;;5076519;28;20036;-66
2023/10/09 08:25:32;;;;;;;9.43;5.75;;;16.10;99.90;;;;;;5076551;28;20048;-66
2023/10/09 08:36:07;;;;;;;11.85;6.10;;;16.20;99.90;;;;;;5076586;28;20056;-65
2023/10/09 08:38:34;;;;;;;11.00;5.53;;;16.20;99.90;;;;;;5076152;28;20059;-66
2023/10/09 08:41:21;;;;;;;10.77;5.82;;;16.10;99.90;;;;;;5076318;28;20098;-66
2023/10/09 08:43:51;;;;;;;13.70;5.75;;;16.20;99.90;;;;;;5076831;28;20080;-66
2023/10/09 08:46:28;;;;;;;13.65;6.18;;;16.20;99.90;;;;;;5076788;28;20059;-65
2023/10/09 08:48:56;;;;;;;11.02;5.82;;;16.20;99.90;;;;;;5077152;28;20127;-65
2023/10/09 08:51:26;;;;;;;14.52;6.40;;;16.20;99.90;;;;;;5076157;28;20060;-66
2023/10/09 08:53:53;;;;;;;10.75;5.43;;;16.30;99.90;;;;;;5076157;28;20056;-66
2023/10/09 08:56:23;;;;;;;10.32;5.63;;;16.30;99.90;;;;;;5076397;28;20397;-65
2023/10/09 08:58:54;;;;;;;12.52;5.63;;;16.20;99.90;;;;;;5076568;28;20045;-65
2023/10/09 09:01:21;;;;;;;12.00;6.22;;;16.20;99.90;;;;;;5076090;28;20136;-65
2023/10/09 09:03:50;;;;;;;10.65;5.90;;;16.20;99.90;;;;;;5074692;28;20048;-65
2023/10/09 09:06:19;;;;;;;9.07;5.40;;;16.20;99.90;;;;;;5075793;28;20048;-66
2023/10/09 09:08:45;;;;;;;13.50;5.90;;;16.10;99.90;;;;;;5075628;28;20477;-66
2023/10/09 09:11:17;;;;;;;13.23;5.85;;;16.10;99.90;;;;;;5076637;28;20359;-66
2023/10/09 09:13:50;;;;;;;11.98;5.78;;;16.10;99.90;;;;;;5075848;28;20044;-66
2023/10/09 09:16:17;;;;;;;12.75;5.88;;;16.00;99.90;;;;;;5076562;28;20123;-65
2023/10/09 09:21:43;;;;;;;10.82;6.15;;;15.90;99.90;;;;;;5075649;28;20143;-65
2023/10/09 09:26:59;;;;;;;15.80;6.35;;;15.80;99.90;;;;;;5076383;28;20091;-65
2023/10/09 09:29:37;;;;;;;12.82;5.80;;;15.80;99.90;;;;;;5075812;28;20171;-65
2023/10/09 09:32:22;;;;;;;13.13;6.32;;;15.80;99.90;;;;;;5075420;28;20131;-66
2023/10/09 09:35:00;;;;;;;13.25;6.70;;;15.80;99.90;;;;;;5076184;28;20390;-65
2023/10/09 09:37:33;;;;;;;11.60;6.03;;;15.80;99.90;;;;;;5075394;28;20048;-65
2023/10/09 09:40:15;;;;;;;10.80;5.95;;;15.90;99.90;;;;;;5075849;28;20044;-66
2023/10/09 09:42:48;;;;;;;12.75;6.47;;;15.90;99.90;;;;;;5075134;28;20048;-64
2023/10/09 09:45:14;;;;;;;14.05;6.75;;;15.90;99.90;;;;;;5075030;28;20127;-64
2023/10/09 09:47:51;;;;;;;12.60;6.10;;;16.00;99.90;;;;;;5074811;28;20508;-65
2023/10/09 09:50:24;;;;;;;11.13;6.60;;;16.00;99.90;;;;;;5075636;28;20397;-64
2023/10/09 09:52:55;;;;;;;14.48;6.60;;;16.00;99.90;;;;;;5074739;28;20113;-65
2023/10/09 09:55:30;;;;;;;12.90;6.75;;;16.10;99.90;;;;;;5074988;28;20091;-65
2023/10/09 09:57:57;;;;;;;11.70;6.38;;;16.10;99.90;;;;;;5075473;28;20436;-65
2023/10/09 10:00:30;;;;;;;15.45;7.97;;;16.10;99.90;;;;;;5075080;28;20044;-65
2023/10/09 10:03:34;;;;;;;12.70;6.68;;;16.10;99.90;;;;;;5074542;28;20087;-64
2023/10/09 10:06:05;;;;;;;12.98;6.97;;;16.10;99.90;;;;;;5062808;28;20092;-65
2023/10/09 10:08:32;;;;;;;12.80;6.32;;;16.20;99.90;;;;;;5058043;28;20041;-66
2023/10/09 10:11:05;;;;;;;12.45;6.43;;;16.30;99.90;;;;;;5074819;28;20051;-65
2023/10/09 10:13:43;;;;;;;12.35;6.22;;;16.30;99.90;;;;;;5074817;28;20424;-65
2023/10/09 10:16:19;;;;;;;12.95;6.03;;;16.30;99.90;;;;;;5074148;28;20063;-65
2023/10/09 10:18:59;;;;;;;15.40;6.30;;;16.30;99.90;;;;;;5074253;28;20554;-65
2023/10/09 10:24:12;;;;;;;9.13;5.30;;;16.40;99.90;;;;;;5074235;28;20056;-67
2023/10/09 10:26:37;;;;;;;11.02;6.05;;;16.40;99.90;;;;;;5074270;28;20478;-66
2023/10/09 10:29:22;;;;;;;12.13;6.05;;;16.50;99.90;;;;;;5073782;28;20059;-66
2023/10/09 10:32:06;;;;;;;14.68;5.80;;;16.50;99.90;;;;;;5073568;28;20040;-65
2023/10/09 10:34:56;;;;;;;9.90;5.43;;;16.60;99.90;;;;;;5074377;28;20083;-65
2023/10/09 10:37:38;;;;;;;15.13;6.47;;;16.60;99.90;;;;;;5073844;28;20044;-65
2023/10/09 10:40:13;;;;;;;12.98;6.38;;;16.60;99.90;;;;;;5074678;28;20048;-66
2023/10/09 10:43:09;;;;;;;13.03;6.00;;;16.70;99.90;;;;;;5074582;28;20045;-65
2023/10/09 10:45:36;;;;;;;11.37;5.47;;;16.80;99.90;;;;;;5073748;28;20119;-65
2023/10/09 10:48:07;;;;;;;8.98;5.68;;;16.70;99.90;;;;;;5073741;28;20056;-65
2023/10/09 10:50:36;;;;;;;10.43;6.05;;;16.70;99.90;;;;;;5073718;28;20044;-65
2023/10/09 10:53:15;;;;;;;9.98;5.60;;;16.70;99.90;;;;;;5073328;28;20044;-65
2023/10/09 10:56:34;;;;;;;12.25;5.47;;;16.80;99.90;;;;;;5074236;28;20120;-66
2023/10/09 10:59:11;;;;;;;9.82;5.38;;;16.80;99.90;;;;;;5073250;28;20457;-65
2023/10/09 11:07:16;;;;;;;10.20;5.55;;;16.80;99.90;;;;;;5074234;28;20464;-65
2023/10/09 11:13:30;;;;;;;10.02;5.47;;;16.80;99.90;;;;;;5073442;28;20048;-66
2023/10/09 11:17:59;;;;;;;13.60;5.93;;;16.80;99.90;;;;;;5074080;28;20440;-66
2023/10/09 11:20:26;;;;;;;13.00;5.60;;;16.80;99.90;;;;;;5073873;28;20048;-66
2023/10/09 11:25:50;;;;;;;12.88;5.47;;;16.80;99.90;;;;;;5074071;28;20072;-66
2023/10/09 11:31:11;;;;;;;10.65;5.65;;;16.80;99.90;;;;;;5073237;28;20044;-66
2023/10/09 11:33:51;;;;;;;9.55;5.40;;;16.80;99.90;;;;;;5073245;28;20377;-66
2023/10/09 11:36:17;;;;;;;12.15;5.53;;;16.80;99.90;;;;;;5073061;28;20059;-66
2023/10/09 11:38:49;;;;;;;11.77;5.47;;;16.80;99.90;;;;;;5072884;28;20052;-66
2023/10/09 11:41:22;;;;;;;11.15;5.30;;;16.80;99.90;;;;;;5073960;28;20131;-67
2023/10/09 11:43:52;;;;;;;12.57;5.55;;;16.80;99.90;;;;;;5076452;28;20053;-66
2023/10/09 11:49:44;;;;;;;13.48;5.22;;;16.90;99.90;;;;;;5077218;28;20048;-66
2023/10/09 11:54:38;;;;;;;10.00;5.47;;;16.90;99.90;;;;;;5077408;28;20058;-66
2023/10/09 11:57:04;;;;;;;14.30;6.45;;;16.90;99.90;;;;;;5077604;28;20487;-66
2023/10/09 11:59:37;;;;;;;12.35;5.47;;;16.90;99.90;;;;;;5076998;28;20052;-66
2023/10/09 12:02:12;;;;;;;14.30;5.07;;;16.90;99.90;;;;;;5076607;28;20511;-65
2023/10/09 12:04:44;;;;;;;11.27;5.03;;;16.90;99.90;;;;;;5076948;28;20048;-66
2023/10/09 12:07:10;;;;;;;11.23;5.43;;;17.00;99.90;;;;;;5076825;28;20105;-66
2023/10/09 12:09:39;;;;;;;8.75;4.85;;;17.10;99.90;;;;;;5076829;28;20413;-66
2023/10/09 12:12:09;;;;;;;11.15;5.30;;;17.10;99.90;;;;;;5076783;28;20040;-66
2023/10/09 12:14:37;;;;;;;12.23;5.72;;;17.20;99.90;;;;;;5076735;28;20051;-66
2023/10/09 12:17:07;;;;;;;9.48;5.05;;;17.20;99.90;;;;;;5076635;28;20166;-66
2023/10/09 12:19:34;;;;;;;11.85;5.10;;;17.40;99.90;;;;;;5077189;28;20105;-66
2023/10/09 12:22:03;;;;;;;12.02;5.25;;;17.50;99.90;;;;;;5076619;28;20048;-66
2023/10/09 12:24:33;;;;;;;13.30;4.70;;;17.70;99.90;;;;;;5076545;28;20055;-66
2023/10/09 12:27:00;;;;;;;10.07;4.13;;;17.60;99.90;;;;;;5076616;28;20054;-66
2023/10/09 12:29:30;;;;;;;11.35;4.63;;;17.60;99.90;;;;;;5076559;28;20080;-66
2023/10/09 12:31:58;;;;;;;10.73;5.43;;;17.50;99.90;;;;;;5076563;28;20049;-66
2023/10/09 12:34:26;;;;;;;8.93;4.00;;;17.50;99.90;;;;;;5076457;28;20048;-66
2023/10/09 12:36:53;;;;;;;9.38;3.90;;;17.50;99.90;;;;;;5076415;28;20128;-66
2023/10/09 12:39:22;;;;;;;11.38;4.40;;;17.40;99.90;;;;;;5076365;28;20040;-66
2023/10/09 12:41:49;;;;;;;7.10;3.83;;;17.40;99.90;;;;;;5075084;28;20041;-66
2023/10/09 12:44:15;;;;;;;11.70;4.18;;;17.40;99.90;;;;;;5076251;28;20044;-66
2023/10/09 12:46:42;;;;;;;9.15;4.10;;;17.40;99.90;;;;;;5075817;28;20378;-66
2023/10/09 12:49:08;;;;;;;10.95;3.85;;;17.50;99.90;;;;;;5075029;28;20127;-66
2023/10/09 12:51:33;;;;;;;11.88;3.80;;;17.60;99.90;;;;;;5076117;28;20079;-66
2023/10/09 12:54:01;;;;;;;7.78;3.78;;;17.80;99.90;;;;;;5075047;28;20108;-65
2023/10/09 12:56:32;;;;;;;6.38;3.72;;;18.00;99.90;;;;;;5076039;28;20117;-66
2023/10/09 12:59:04;;;;;;;8.50;3.70;;;18.10;99.90;;;;;;5076611;28;20044;-66
2023/10/09 13:01:42;;;;;;;8.40;3.35;;;18.20;99.90;;;;;;5076423;28;20056;-66
2023/10/09 13:04:15;;;;;;;9.98;3.53;;;18.20;99.90;;;;;;5075962;28;20037;-66
2023/10/09 13:06:43;;;;;;;8.07;3.55;;;18.20;99.90;;;;;;5075874;28;20052;-67
2023/10/09 13:09:11;;;;;;;5.18;2.83;;;18.10;99.90;;;;;;5075764;28;20057;-66
2023/10/09 13:11:37;;;;;;;8.85;3.05;;;18.10;99.90;;;;;;5075737;28;20370;-66
2023/10/09 13:14:11;;;;;;;8.38;3.63;;;18.00;99.90;;;;;;5076254;28;20470;-65
2023/10/09 13:16:37;;;;;;;5.78;3.38;;;17.90;99.90;;;;;;5075645;28;20055;-66
2023/10/09 13:19:09;;;;;;;8.95;3.53;;;17.90;99.90;;;;;;5075609;28;20052;-66
2023/10/09 13:21:39;;;;;;;8.38;3.10;;;17.90;99.90;;;;;;5075608;28;20052;-65
2023/10/09 13:24:12;;;;;;;9.70;2.97;;;17.90;99.90;;;;;;5075477;28;20055;-65
2023/10/09 13:26:46;;;;;;;5.32;2.80;;;18.00;99.90;;;;;;5076065;28;20131;-65
2023/10/09 13:29:12;;;;;;;7.50;2.47;;;18.00;99.90;;;;;;5075377;28;20091;-65
2023/10/09 13:31:40;;;;;;;4.78;2.30;;;18.00;99.90;;;;;;5075215;28;20044;-65
2023/10/09 13:34:14;;;;;;;5.25;2.42;;;18.00;99.90;;;;;;5075351;28;20045;-66
2023/10/09 13:36:49;;;;;;;5.93;2.40;;;17.90;99.90;;;;;;5075328;28;20123;-66
2023/10/09 13:39:25;;;;;;;5.93;2.83;;;17.90;99.90;;;;;;5075210;28;20045;-66
2023/10/09 13:41:58;;;;;;;7.95;2.45;;;18.00;99.90;;;;;;5075177;28;20055;-66
2023/10/09 13:44:34;;;;;;;6.63;2.42;;;17.90;99.90;;;;;;5075721;28;20040;-66
2023/10/09 13:47:02;;;;;;;6.40;2.50;;;18.00;99.90;;;;;;5075336;28;20556;-65
2023/10/09 13:49:31;;;;;;;8.18;3.28;;;17.90;99.90;;;;;;5074924;28;20110;-66
2023/10/09 13:51:57;;;;;;;4.97;2.67;;;17.90;99.90;;;;;;5074949;28;20048;-66
2023/10/09 13:57:04;;;;;;;5.32;3.03;;;17.90;99.90;;;;;;5074742;28;20136;-66
2023/10/09 13:59:30;;;;;;;5.65;2.83;;;18.00;99.90;;;;;;5074862;28;20048;-67
2023/10/09 14:01:56;;;;;;;7.47;2.80;;;18.10;99.90;;;;;;5075425;28;20105;-65
2023/10/09 14:04:23;;;;;;;5.18;2.50;;;18.10;99.90;;;;;;5074861;28;20374;-66
2023/10/09 14:06:59;;;;;;;6.65;2.80;;;18.10;99.90;;;;;;5074660;28;20044;-66
2023/10/09 14:10:17;;;;;;;5.43;2.85;;;18.20;99.90;;;;;;5074489;28;20052;-65
2023/10/09 14:12:19;;;;;;;5.00;2.53;;;18.20;99.90;;;;;;5071365;28;20098;-66
2023/10/09 14:14:48;;;;;;;8.07;3.15;;;18.20;99.90;;;;;;5074440;28;20048;-65
2023/10/09 14:17:24;;;;;;;3.97;2.10;;;18.10;99.90;;;;;;5074814;28;20040;-65
2023/10/09 14:19:51;;;;;;;4.38;1.90;;;18.00;99.90;;;;;;5074711;28;20040;-65
2023/10/09 14:22:24;;;;;;;5.75;2.25;;;18.00;99.90;;;;;;5074870;28;20053;-66
2023/10/09 14:24:57;;;;;;;6.03;2.30;;;17.90;99.90;;;;;;5074241;28;20048;-65
2023/10/09 14:27:26;;;;;;;5.68;2.80;;;17.80;99.90;;;;;;5073088;28;20052;-65
2023/10/09 14:29:57;;;;;;;5.05;2.80;;;17.80;99.90;;;;;;5073868;28;20505;-65
2023/10/09 14:32:28;;;;;;;4.72;2.20;;;17.70;99.90;;;;;;5074036;28;20119;-65
2023/10/09 14:35:00;;;;;;;7.13;2.55;;;17.60;99.90;;;;;;5073494;28;20122;-65
2023/10/09 14:37:26;;;;;;;6.30;2.55;;;17.60;99.90;;;;;;5074075;28;20048;-65
2023/10/09 14:39:52;;;;;;;5.78;2.70;;;17.60;99.90;;;;;;5074032;28;20040;-65
2023/10/09 14:42:20;;;;;;;6.60;2.40;;;17.60;99.90;;;;;;5073669;28;20041;-65
2023/10/09 14:44:46;;;;;;;5.38;2.20;;;17.60;99.90;;;;;;5073800;28;20054;-65
2023/10/09 14:47:14;;;;;;;3.70;2.17;;;17.60;99.90;;;;;;5073711;28;20041;-65
2023/10/09 14:49:46;;;;;;;7.78;2.50;;;17.60;99.90;;;;;;5074606;28;20458;-65
2023/10/09 14:52:16;;;;;;;6.38;1.90;;;17.60;99.90;;;;;;5074151;28;20119;-65
2023/10/09 14:54:45;;;;;;;4.95;2.45;;;17.60;99.90;;;;;;5073714;28;20557;-65
2023/10/09 14:57:14;;;;;;;3.67;1.95;;;17.60;99.90;;;;;;5074138;28;20048;-66
2023/10/09 14:59:40;;;;;;;5.82;2.17;;;17.60;99.90;;;;;;5073557;28;20052;-65
2023/10/09 15:02:07;;;;;;;5.00;2.20;;;17.60;99.90;;;;;;5073674;28;20126;-66
2023/10/09 15:04:36;;;;;;;5.20;1.88;;;17.50;99.90;;;;;;5072581;28;20140;-65
2023/10/09 15:07:08;;;;;;;4.90;1.98;;;17.50;99.90;;;;;;5073419;28;20063;-66
2023/10/09 15:09:39;;;;;;;5.05;1.83;;;17.50;99.90;;;;;;5073565;28;20044;-65
2023/10/09 15:12:06;;;;;;;6.28;2.10;;;17.50;99.90;;;;;;5073631;28;20053;-66
2023/10/09 15:14:33;;;;;;;7.03;2.58;;;17.50;99.90;;;;;;5073509;28;20044;-66
2023/10/09 15:16:59;;;;;;;6.13;2.67;;;17.40;99.90;;;;;;5073250;28;20478;-66
2023/10/09 15:19:29;;;;;;;6.10;2.50;;;17.40;99.90;;;;;;5074188;28;20135;-66
2023/10/09 15:21:56;;;;;;;5.82;2.10;;;17.30;99.90;;;;;;5073871;28;20406;-67
2023/10/09 15:24:22;;;;;;;5.25;2.38;;;17.30;99.90;;;;;;5072648;28;20541;-67
2023/10/09 15:26:57;;;;;;;4.85;2.03;;;17.20;99.90;;;;;;5073465;28;20436;-65
2023/10/09 15:29:30;;;;;;;5.13;2.40;;;17.20;99.90;;;;;;5073502;28;20069;-66